Time;durP1;ratioP1;P1;durP2;ratioP2;P2;SDS_P1;SDS_P2;PMS_P1;PMS_P2;Temp;Humidity;BMP_temperature;BMP_pressure;BME280_temperature;BME280_humidity;BME280_pressure;Samples;Min_cycle;Max_cycle;Signal;HPM_P1;HPM_P2
2022/11/15 00:00:44;;;;;;;28.48;17.77;;;;;;;3.50;79.79;95384.41;5049914;28;20123;-72
2022/11/15 00:03:10;;;;;;;28.77;17.90;;;;;;;3.03;79.22;95306.06;5049602;28;20455;-72
2022/11/15 00:05:35;;;;;;;27.73;18.05;;;;;;;3.50;78.94;95387.00;5065255;28;20029;-72
2022/11/15 00:08:01;;;;;;;30.10;17.90;;;;;;;3.61;78.84;95394.22;5033191;28;20024;-72
2022/11/15 00:10:27;;;;;;;29.60;19.35;;;;;;;3.44;78.52;95356.44;5033472;28;20048;-72
2022/11/15 00:12:52;;;;;;;26.15;16.15;;;;;;;3.43;78.48;95360.75;5049248;28;20024;-72
2022/11/15 00:15:17;;;;;;;26.00;16.73;;;;;;;3.42;78.85;95356.50;5065456;28;20028;-72
2022/11/15 00:17:43;;;;;;;26.80;17.02;;;;;;;3.68;78.79;95398.16;5066003;28;20513;-72
2022/11/15 00:20:09;;;;;;;25.55;16.33;;;;;;;3.26;78.92;95324.72;5049313;28;20032;-72
2022/11/15 00:22:34;;;;;;;29.23;17.40;;;;;;;3.27;78.93;95331.53;5066483;28;20021;-72
2022/11/15 00:25:00;;;;;;;30.73;17.98;;;;;;;3.49;78.58;95350.19;5063680;28;20020;-72
2022/11/15 00:27:27;;;;;;;28.92;17.73;;;;;;;3.51;78.38;95348.41;5065877;28;20028;-72
2022/11/15 00:29:52;;;;;;;28.52;17.13;;;;;;;3.73;78.83;95376.50;5049445;28;20038;-72
2022/11/15 00:32:18;;;;;;;28.13;16.80;;;;;;;3.34;79.20;95346.63;5068048;28;20048;-72
2022/11/15 00:34:43;;;;;;;27.50;16.88;;;;;;;3.63;79.12;95374.41;5047546;28;20036;-72
2022/11/15 00:37:09;;;;;;;28.98;17.40;;;;;;;3.65;79.04;95380.31;5067424;28;20430;-72
2022/11/15 00:39:34;;;;;;;30.30;17.20;;;;;;;3.65;78.76;95377.72;5053185;28;20047;-72
2022/11/15 00:41:59;;;;;;;23.45;15.55;;;;;;;3.55;78.83;95343.94;5069522;28;20032;-72
2022/11/15 00:44:25;;;;;;;30.95;18.27;;;;;;;3.08;78.53;95268.19;5069802;28;20039;-72
2022/11/15 00:46:50;;;;;;;27.05;17.42;;;;;;;3.33;78.49;95303.00;5069604;28;20455;-72
2022/11/15 00:49:16;;;;;;;34.72;20.25;;;;;;;3.76;77.98;95360.06;5069678;28;20029;-72
2022/11/15 00:51:41;;;;;;;32.83;20.23;;;;;;;3.67;77.41;95342.53;5070765;28;20028;-72
2022/11/15 00:54:07;;;;;;;52.50;28.88;;;;;;;3.80;77.05;95369.31;5052895;28;20032;-73
2022/11/15 00:56:32;;;;;;;44.95;28.25;;;;;;;3.33;76.83;95288.44;5069445;28;20033;-72
2022/11/15 00:58:58;;;;;;;58.85;35.97;;;;;;;3.74;76.59;95367.03;5052959;28;20036;-72
2022/11/15 01:01:23;;;;;;;57.63;38.05;;;;;;;3.31;75.94;95297.09;5052661;28;20510;-72
2022/11/15 01:03:48;;;;;;;52.08;32.90;;;;;;;3.49;75.69;95329.66;5067948;28;20040;-72
2022/11/15 01:06:14;;;;;;;48.70;27.50;;;;;;;3.34;75.89;95314.94;5069494;28;20078;-72
2022/11/15 01:08:40;;;;;;;35.67;22.92;;;;;;;3.17;76.02;95300.31;5069461;28;20032;-72
2022/11/15 01:11:07;;;;;;;27.42;17.00;;;;;;;3.53;76.79;95356.84;5036057;28;20043;-73
2022/11/15 01:13:33;;;;;;;28.15;17.20;;;;;;;3.34;78.12;95354.31;5052962;28;20029;-72
2022/11/15 01:15:59;;;;;;;28.30;18.60;;;;;;;3.29;77.62;95348.56;5052521;28;20040;-72
2022/11/15 01:18:25;;;;;;;30.98;17.25;;;;;;;3.00;77.37;95280.53;5052641;28;20051;-72
2022/11/15 01:20:50;;;;;;;28.98;17.27;;;;;;;3.20;77.50;95319.88;5070433;28;20486;-72
2022/11/15 01:23:16;;;;;;;27.55;16.90;;;;;;;3.22;77.36;95325.78;5069378;28;20482;-72
2022/11/15 01:25:41;;;;;;;25.77;17.13;;;;;;;3.01;77.08;95282.22;5052972;28;20460;-72
2022/11/15 01:28:07;;;;;;;31.60;17.65;;;;;;;3.11;77.11;95313.44;5056832;28;20036;-72
2022/11/15 01:30:32;;;;;;;27.05;16.90;;;;;;;3.28;78.05;95352.00;5056536;28;20025;-72
2022/11/15 01:32:57;;;;;;;25.42;15.55;;;;;;;3.32;78.30;95353.53;5073187;28;20049;-72
2022/11/15 01:35:23;;;;;;;23.60;13.90;;;;;;;3.29;78.58;95337.44;5073245;28;20036;-72
2022/11/15 01:37:48;;;;;;;23.65;14.45;;;;;;;3.32;79.01;95350.16;5056419;28;20466;-72
2022/11/15 01:40:14;;;;;;;22.77;14.38;;;;;;;3.32;79.45;95353.53;5056330;28;20263;-72
2022/11/15 01:42:39;;;;;;;21.10;14.07;;;;;;;3.05;79.37;95290.63;5062475;28;20029;-72
2022/11/15 01:45:05;;;;;;;25.23;16.00;;;;;;;3.17;79.01;95302.88;5052923;28;20029;-72
2022/11/15 01:47:46;;;;;;;41.15;25.40;;;;;;;2.82;77.43;95281.41;5054317;28;20021;-72
2022/11/15 01:50:17;;;;;;;53.78;30.48;;;;;;;3.05;76.15;95308.59;5036253;28;20037;-72
2022/11/15 01:52:42;;;;;;;49.47;28.95;;;;;;;2.59;75.88;95260.16;5052786;28;20025;-72
2022/11/15 01:55:11;;;;;;;43.72;25.52;;;;;;;3.11;75.20;95344.25;5047922;28;20465;-72
2022/11/15 01:57:37;;;;;;;38.95;25.05;;;;;;;3.06;75.15;95357.28;5052590;28;20079;-72
2022/11/15 02:00:03;;;;;;;37.53;25.30;;;;;;;3.03;74.59;95330.91;5019475;28;20041;-72
2022/11/15 02:02:28;;;;;;;35.22;22.13;;;;;;;2.98;74.37;95341.41;5053988;28;20040;-72
2022/11/15 02:04:54;;;;;;;36.72;22.60;;;;;;;2.86;75.40;95313.72;5053790;28;20479;-72
2022/11/15 02:07:20;;;;;;;40.00;25.20;;;;;;;2.78;74.44;95300.38;5052593;28;20032;-72
2022/11/15 02:09:45;;;;;;;43.67;26.40;;;;;;;3.01;73.70;95348.97;5052559;28;20414;-72
2022/11/15 02:12:12;;;;;;;41.47;24.40;;;;;;;2.44;73.40;95281.34;5034984;28;20079;-72
2022/11/15 02:14:38;;;;;;;64.00;35.28;;;;;;;2.82;73.26;95348.94;5051382;28;20033;-72
2022/11/15 02:17:09;;;;;;;56.30;32.92;;;;;;;2.85;71.81;95343.69;5051594;28;20043;-72
2022/11/15 02:19:38;;;;;;;52.58;32.80;;;;;;;2.89;70.96;95346.94;5053151;28;20040;-72
2022/11/15 02:22:40;;;;;;;53.03;32.65;;;;;;;2.81;71.17;95346.44;5053499;28;20150;-72
2022/11/15 02:25:15;;;;;;;59.70;35.08;;;;;;;2.63;71.60;95350.66;5053397;28;20090;-72
2022/11/15 02:28:05;;;;;;;48.78;28.73;;;;;;;2.40;71.62;95342.19;5052241;28;20021;-72
2022/11/15 02:30:42;;;;;;;48.38;27.65;;;;;;;2.24;71.60;95341.19;5035443;28;20041;-72
2022/11/15 02:33:37;;;;;;;45.05;27.55;;;;;;;1.97;72.38;95302.13;5053170;28;20456;-72
2022/11/15 02:36:06;;;;;;;41.53;25.15;;;;;;;2.18;72.06;95352.53;5052301;28;20028;-72
2022/11/15 02:38:34;;;;;;;41.78;25.10;;;;;;;2.13;71.57;95345.91;5018123;28;20414;-72
2022/11/15 02:41:02;;;;;;;37.95;23.58;;;;;;;2.10;71.67;95341.75;5051973;28;20041;-72
2022/11/15 02:43:58;;;;;;;62.30;37.90;;;;;;;2.15;71.22;95350.09;5071586;28;20032;-72
2022/11/15 02:47:12;;;;;;;65.53;36.05;;;;;;;1.95;71.61;95317.59;5071681;28;20073;-72
2022/11/15 02:49:12;;;;;;;56.55;33.63;;;;;;;1.84;72.34;95327.44;5071994;28;20045;-72
2022/11/15 02:51:38;;;;;;;59.53;34.30;;;;;;;1.58;72.51;95333.59;5055060;28;20044;-72
2022/11/15 02:54:03;;;;;;;59.33;34.28;;;;;;;1.71;72.24;95352.72;5038511;28;20031;-72
2022/11/15 02:56:29;;;;;;;65.10;38.95;;;;;;;1.08;73.37;95267.28;5054935;28;20051;-72
2022/11/15 02:59:07;;;;;;;64.13;36.63;;;;;;;1.45;73.15;95355.44;5054876;28;20039;-72
2022/11/15 03:01:42;;;;;;;72.22;39.55;;;;;;;1.33;73.04;95359.31;5056210;28;20032;-72
2022/11/15 03:04:07;;;;;;;80.78;38.45;;;;;;;1.31;73.51;95359.38;5072999;28;20052;-72
2022/11/15 03:06:39;;;;;;;59.25;35.35;;;;;;;1.30;73.63;95352.59;5072703;28;20528;-72
2022/11/15 03:09:04;;;;;;;;;;;;;;;1.17;73.21;95355.66;5073360;28;20111;-72
2022/11/15 03:11:29;;;;;;;62.65;33.08;;;;;;;1.09;73.71;95338.06;5072594;28;20057;-72
2022/11/15 03:14:10;;;;;;;59.58;33.22;;;;;;;1.09;73.55;95343.16;5054769;28;20024;-72
2022/11/15 03:16:57;;;;;;;62.53;32.95;;;;;;;1.06;73.74;95343.28;5056560;28;20472;-72
2022/11/15 03:19:30;;;;;;;59.67;33.15;;;;;;;0.96;73.80;95337.66;5071521;28;20113;-72
2022/11/15 03:21:55;;;;;;;51.53;30.90;;;;;;;1.08;73.86;95357.66;5055230;28;20042;-72
2022/11/15 03:24:21;;;;;;;62.83;32.92;;;;;;;1.04;73.47;95355.31;5071179;28;20467;-72
2022/11/15 03:26:46;;;;;;;69.40;36.15;;;;;;;0.85;73.80;95329.56;5054410;28;20036;-72
2022/11/15 03:29:35;;;;;;;77.70;36.13;;;;;;;0.57;74.22;95310.09;5054470;28;20037;-72
2022/11/15 03:32:04;;;;;;;69.05;34.90;;;;;;;0.70;75.39;95341.19;5056877;28;20079;-72
2022/11/15 03:35:12;;;;;;;65.90;34.08;;;;;;;0.77;76.23;95342.59;5054584;28;20111;-72
2022/11/15 03:37:46;;;;;;;62.63;30.48;;;;;;;0.81;76.40;95344.19;5053989;28;20521;-72
2022/11/15 03:40:11;;;;;;;74.00;33.03;;;;;;;0.81;76.36;95333.13;5070753;28;20024;-72
2022/11/15 03:42:41;;;;;;;76.43;33.88;;;;;;;0.60;77.23;95314.25;5059392;28;20021;-72
2022/11/15 03:45:18;;;;;;;69.00;31.75;;;;;;;0.78;77.86;95331.50;5050762;28;20040;-72
2022/11/15 03:47:53;;;;;;;79.75;32.72;;;;;;;0.66;77.97;95329.38;5050724;28;20115;-72
2022/11/15 03:50:19;;;;;;;67.40;31.35;;;;;;;0.72;77.86;95323.22;5049674;28;20052;-72
2022/11/15 03:52:46;;;;;;;65.45;30.02;;;;;;;0.67;77.62;95323.38;5050481;28;20021;-72
2022/11/15 03:55:13;;;;;;;62.20;28.88;;;;;;;0.36;77.71;95270.81;5050559;28;20036;-72
2022/11/15 03:57:39;;;;;;;62.30;29.25;;;;;;;0.26;77.33;95254.13;5050380;28;20029;-72
2022/11/15 04:00:04;;;;;;;75.05;31.83;;;;;;;0.59;77.58;95310.03;5050447;28;20479;-72
2022/11/15 04:02:30;;;;;;;58.65;30.20;;;;;;;0.65;78.45;95326.00;5050536;28;20384;-72
2022/11/15 04:04:55;;;;;;;64.50;28.30;;;;;;;0.54;78.91;95307.66;5033686;28;20427;-72
2022/11/15 04:07:21;;;;;;;61.28;28.92;;;;;;;0.46;79.24;95291.75;5017151;28;20059;-72
2022/11/15 04:10:01;;;;;;;52.95;27.60;;;;;;;0.72;79.59;95324.03;5050351;28;20628;-72
2022/11/15 04:12:36;;;;;;;59.47;28.17;;;;;;;0.60;79.58;95297.19;5129126;27;20939;-73
2022/11/15 04:15:07;;;;;;;57.35;29.20;;;;;;;0.73;79.84;95317.22;5129209;28;20408;-73
2022/11/15 04:17:52;;;;;;;45.95;26.13;;;;;;;0.79;80.57;95317.00;5129082;27;20043;-73
2022/11/15 04:25:50;;;;;;;51.80;29.20;;;;;;;0.68;81.36;95308.88;5113497;28;20090;-73
2022/11/15 04:28:16;;;;;;;59.67;31.42;;;;;;;0.76;81.68;95317.09;5110507;28;20038;-73
2022/11/15 04:30:41;;;;;;;51.97;29.45;;;;;;;0.60;81.87;95281.84;5110293;28;20027;-73
2022/11/15 04:33:07;;;;;;;56.90;30.00;;;;;;;0.64;81.79;95291.09;5110311;28;20034;-73
2022/11/15 04:35:32;;;;;;;50.47;28.10;;;;;;;0.72;81.50;95285.66;5127404;28;20155;-72
2022/11/15 04:37:58;;;;;;;48.22;27.70;;;;;;;1.00;81.02;95303.38;5127330;28;20435;-73
2022/11/15 04:40:23;;;;;;;50.20;27.73;;;;;;;0.34;81.44;95206.13;5093281;28;20047;-73
2022/11/15 04:42:48;;;;;;;47.50;27.48;;;;;;;0.93;80.91;95290.91;5127157;28;20080;-73
2022/11/15 04:45:14;;;;;;;45.10;25.48;;;;;;;0.91;81.24;95285.81;5110079;28;20031;-71
2022/11/15 04:47:39;;;;;;;53.08;30.02;;;;;;;0.44;80.97;95204.88;5127329;28;20032;-72
2022/11/15 04:50:05;;;;;;;47.15;27.45;;;;;;;1.12;81.26;95307.22;5092886;28;20413;-73
2022/11/15 04:52:31;;;;;;;53.42;29.70;;;;;;;0.95;80.49;95276.31;5128226;28;20438;-72
2022/11/15 04:54:56;;;;;;;49.97;28.35;;;;;;;0.94;80.06;95249.91;5092837;28;20038;-71
2022/11/15 04:57:22;;;;;;;48.38;27.42;;;;;;;1.37;80.52;95303.72;5128710;28;20035;-71
2022/11/15 04:59:47;;;;;;;56.42;30.67;;;;;;;1.28;79.14;95259.69;5126903;28;20050;-72
2022/11/15 05:02:13;;;;;;;50.30;30.52;;;;;;;1.46;79.11;95282.88;5127201;28;20036;-71
2022/11/15 05:04:38;;;;;;;50.45;29.88;;;;;;;1.60;79.15;95300.25;5126714;28;20023;-71
2022/11/15 05:07:04;;;;;;;51.97;29.33;;;;;;;1.59;79.59;95296.00;5127844;28;20027;-72
2022/11/15 05:09:29;;;;;;;53.22;28.52;;;;;;;1.51;79.67;95306.56;5126622;28;20027;-72
2022/11/15 05:11:55;;;;;;;52.45;29.17;;;;;;;1.51;80.27;95307.41;5109297;28;20527;-72
2022/11/15 05:14:20;;;;;;;45.47;25.67;;;;;;;1.42;79.85;95283.88;5126995;28;20019;-71
2022/11/15 05:16:46;;;;;;;46.00;26.15;;;;;;;1.59;78.92;95283.19;5109619;28;20035;-71
2022/11/15 05:19:11;;;;;;;48.33;26.33;;;;;;;1.84;79.20;95312.06;5126466;28;20034;-72
2022/11/15 05:21:36;;;;;;;47.97;26.88;;;;;;;1.58;79.52;95284.09;5109647;28;20540;-73
2022/11/15 05:24:02;;;;;;;44.65;25.80;;;;;;;1.63;79.48;95287.31;5113422;28;20027;-72
2022/11/15 05:26:28;;;;;;;56.80;28.95;;;;;;;1.69;79.77;95321.19;5112277;28;20042;-73
2022/11/15 05:28:54;;;;;;;58.78;28.83;;;;;;;1.71;79.75;95316.84;5111928;28;20182;-72
2022/11/15 05:31:20;;;;;;;52.67;28.08;;;;;;;1.54;79.97;95309.00;5095504;28;20043;-72
2022/11/15 05:33:45;;;;;;;43.50;24.70;;;;;;;1.49;80.54;95282.75;5095718;28;20036;-72
2022/11/15 05:36:14;;;;;;;46.45;25.88;;;;;;;1.72;80.21;95317.69;5114043;28;20046;-72
2022/11/15 05:38:39;;;;;;;43.97;24.33;;;;;;;1.65;80.68;95306.03;5114125;28;20031;-72
2022/11/15 05:41:05;;;;;;;49.45;24.05;;;;;;;1.71;80.63;95308.34;5078643;28;20035;-72
2022/11/15 05:43:30;;;;;;;39.60;21.67;;;;;;;1.73;81.20;95312.50;5091890;28;20093;-72
2022/11/15 05:45:56;;;;;;;39.83;22.58;;;;;;;1.40;81.24;95242.16;5091980;28;20494;-72
2022/11/15 05:48:22;;;;;;;37.88;21.67;;;;;;;1.55;80.86;95255.16;5091911;28;20024;-72
2022/11/15 05:50:47;;;;;;;36.42;21.63;;;;;;;1.96;80.89;95301.31;5097900;28;20039;-72
2022/11/15 05:53:14;;;;;;;40.90;22.02;;;;;;;1.76;80.40;95252.63;5075121;28;20020;-72
2022/11/15 05:55:40;;;;;;;43.17;22.45;;;;;;;1.81;79.73;95234.50;5091968;28;20089;-72
2022/11/15 05:58:05;;;;;;;39.00;20.63;;;;;;;2.39;79.45;95304.63;5081858;28;20074;-72
2022/11/15 06:00:31;;;;;;;44.65;22.27;;;;;;;1.86;79.47;95217.19;5058218;28;20486;-72
2022/11/15 06:02:56;;;;;;;43.30;23.30;;;;;;;2.34;79.96;95310.84;5065829;28;20040;-72
2022/11/15 06:05:22;;;;;;;40.85;23.23;;;;;;;2.32;79.36;95294.72;5092960;28;20028;-72
2022/11/15 06:07:47;;;;;;;49.58;24.40;;;;;;;2.31;79.53;95285.34;5083103;28;20125;-72
2022/11/15 06:10:12;;;;;;;48.88;26.27;;;;;;;2.32;79.39;95277.59;5105221;27;20084;-72
2022/11/15 06:12:38;;;;;;;42.20;22.48;;;;;;;2.51;79.21;95305.84;5076917;28;20029;-72
2022/11/15 06:15:04;;;;;;;42.80;21.27;;;;;;;2.48;78.97;95282.91;5115072;27;20107;-72
2022/11/15 06:17:29;;;;;;;59.95;28.05;;;;;;;2.69;79.24;95312.72;5111855;28;20095;-72
2022/11/15 06:19:55;;;;;;;59.63;26.30;;;;;;;2.67;79.32;95318.81;5111006;28;20027;-72
2022/11/15 06:22:20;;;;;;;53.13;26.23;;;;;;;2.64;80.57;95306.94;5094727;28;20057;-72
2022/11/15 06:24:46;;;;;;;36.00;20.67;;;;;;;2.44;80.72;95281.34;5094319;28;20042;-72
2022/11/15 06:27:12;;;;;;;31.77;16.45;;;;;;;2.49;81.35;95302.50;5101884;28;20102;-72
2022/11/15 06:29:37;;;;;;;38.17;20.05;;;;;;;2.40;81.29;95284.97;5098918;28;20034;-72
2022/11/15 06:32:03;;;;;;;58.72;30.95;;;;;;;2.66;81.10;95302.59;5087902;28;20485;-71
2022/11/15 06:34:28;;;;;;;65.07;31.20;;;;;;;2.36;80.97;95237.25;5074141;28;20032;-71
2022/11/15 06:36:54;;;;;;;50.03;28.58;;;;;;;2.85;81.36;95297.47;5086316;28;20023;-73
2022/11/15 06:39:20;;;;;;;99.13;44.85;;;;;;;2.98;81.02;95314.88;5083028;28;20149;-73
2022/11/15 06:41:45;;;;;;;52.80;28.67;;;;;;;2.89;81.05;95304.13;5111362;28;20488;-74
2022/11/15 06:44:11;;;;;;;38.38;20.23;;;;;;;2.97;80.88;95319.19;5097285;27;20031;-71
2022/11/15 06:46:36;;;;;;;30.73;15.15;;;;;;;2.95;81.02;95320.16;5088984;28;20480;-72
2022/11/15 06:49:01;;;;;;;40.88;14.82;;;;;;;2.75;81.48;95311.63;5088091;28;20496;-72
2022/11/15 06:51:27;;;;;;;29.65;16.05;;;;;;;2.73;81.65;95312.56;5105936;28;20475;-72
2022/11/15 06:53:52;;;;;;;35.38;16.52;;;;;;;2.65;82.35;95300.94;5089123;27;20023;-71
2022/11/15 06:56:18;;;;;;;28.95;15.90;;;;;;;2.71;82.53;95306.69;5077297;28;20043;-71
2022/11/15 06:58:43;;;;;;;40.03;19.88;;;;;;;2.87;82.69;95308.53;5094452;28;20053;-71
2022/11/15 07:01:10;;;;;;;39.38;18.83;;;;;;;3.06;82.71;95307.66;5095858;28;20039;-72
2022/11/15 07:03:36;;;;;;;41.67;20.98;;;;;;;3.21;81.79;95304.41;5087136;28;20027;-72
2022/11/15 07:06:02;;;;;;;43.00;21.77;;;;;;;3.34;81.71;95309.81;5087253;27;20482;-72
2022/11/15 07:08:28;;;;;;;43.85;21.98;;;;;;;3.37;81.32;95304.50;5110143;27;20019;-72
2022/11/15 07:10:53;;;;;;;31.27;16.05;;;;;;;3.24;81.21;95306.84;5109040;27;20074;-72
2022/11/15 07:13:19;;;;;;;31.90;15.98;;;;;;;3.16;81.42;95300.41;5110484;27;20397;-72
2022/11/15 07:15:44;;;;;;;26.55;14.40;;;;;;;3.24;81.06;95283.72;5110620;27;20432;-72
2022/11/15 07:18:09;;;;;;;27.20;15.65;;;;;;;3.44;80.89;95295.63;5128769;27;20034;-72
2022/11/15 07:20:35;;;;;;;29.33;15.75;;;;;;;3.57;80.44;95291.59;5128581;27;20447;-72
2022/11/15 07:23:04;;;;;;;33.58;15.98;;;;;;;3.74;80.11;95300.22;5128173;27;20027;-72
2022/11/15 07:25:29;;;;;;;44.95;22.83;;;;;;;3.72;80.43;95297.72;5112396;27;20034;-72
2022/11/15 07:27:58;;;;;;;42.15;20.80;;;;;;;3.68;80.22;95277.41;5129072;27;20460;-72
2022/11/15 07:30:24;;;;;;;32.40;17.83;;;;;;;3.59;80.72;95288.94;5130394;27;20307;-73
2022/11/15 07:32:54;;;;;;;31.38;16.13;;;;;;;3.66;80.65;95286.91;5128969;27;20019;-72
2022/11/15 07:35:20;;;;;;;32.38;16.50;;;;;;;3.92;79.32;95298.47;5129100;27;20106;-72
2022/11/15 07:37:56;;;;;;;37.00;16.92;;;;;;;3.96;79.25;95288.00;5128934;27;20098;-72
2022/11/15 07:40:21;;;;;;;53.53;27.25;;;;;;;3.96;79.71;95290.56;5131013;27;20027;-72
2022/11/15 07:42:53;;;;;;;58.53;23.98;;;;;;;3.88;79.41;95292.66;5130936;27;20027;-73
2022/11/15 07:45:18;;;;;;;;;;;;;;;3.60;80.27;95289.78;5132247;27;20450;-72
2022/11/15 07:47:53;;;;;;;50.40;24.08;;;;;;;3.65;80.49;95290.38;5130847;27;19960;-72
2022/11/15 07:50:19;;;;;;;54.72;24.00;;;;;;;3.62;80.86;95260.50;5130756;27;20034;-72
2022/11/15 07:52:45;;;;;;;53.95;25.83;;;;;;;3.85;80.25;95286.84;5130802;27;20471;-70
2022/11/15 07:55:10;;;;;;;59.50;26.50;;;;;;;3.90;80.82;95283.16;5113635;27;20105;-70
2022/11/15 07:57:36;;;;;;;48.35;25.65;;;;;;;3.98;80.70;95280.19;5113592;27;20066;-70
2022/11/15 08:00:02;;;;;;;47.47;24.35;;;;;;;4.19;79.46;95299.69;5113439;28;20106;-69
2022/11/15 08:02:27;;;;;;;55.47;24.75;;;;;;;3.99;79.19;95262.13;5113485;28;20034;-70
2022/11/15 08:04:53;;;;;;;61.50;30.98;;;;;;;4.23;78.24;95282.38;5113304;27;20023;-70
2022/11/15 08:07:18;;;;;;;56.97;26.90;;;;;;;4.20;78.67;95285.09;5113683;28;20049;-70
2022/11/15 08:09:44;;;;;;;55.72;28.58;;;;;;;3.92;79.17;95237.63;5130429;28;20042;-70
2022/11/15 08:12:09;;;;;;;50.33;25.60;;;;;;;4.32;77.98;95283.63;5130276;28;20043;-70
2022/11/15 08:14:35;;;;;;;51.78;24.83;;;;;;;4.21;77.22;95258.47;5130443;28;20023;-69
2022/11/15 08:17:00;;;;;;;47.28;24.17;;;;;;;4.35;77.65;95286.91;5113403;28;20042;-70
2022/11/15 08:19:26;;;;;;;46.83;23.25;;;;;;;3.96;77.70;95212.63;5130656;28;20035;-69
2022/11/15 08:21:51;;;;;;;43.50;20.92;;;;;;;4.49;77.30;95288.78;5113096;28;20027;-69
2022/11/15 08:24:17;;;;;;;41.80;20.80;;;;;;;4.22;77.32;95252.41;5113174;28;20035;-70
2022/11/15 08:26:42;;;;;;;44.38;22.45;;;;;;;4.44;77.09;95275.31;5131943;27;20546;-70
2022/11/15 08:29:08;;;;;;;41.47;21.95;;;;;;;4.54;77.28;95284.22;5113262;28;20027;-70
2022/11/15 08:31:34;;;;;;;52.78;24.00;;;;;;;4.06;77.51;95210.38;5130304;28;20092;-70
2022/11/15 08:34:00;;;;;;;49.88;22.63;;;;;;;3.88;77.62;95196.75;5130308;28;20027;-70
2022/11/15 08:36:26;;;;;;;43.83;21.58;;;;;;;4.59;76.90;95271.94;5113412;28;20039;-70
2022/11/15 08:38:51;;;;;;;42.35;22.25;;;;;;;4.64;76.43;95280.25;5096101;28;20023;-70
2022/11/15 08:41:40;;;;;;;42.78;22.40;;;;;;;4.53;77.24;95267.09;5113266;28;20553;-70
2022/11/15 08:44:05;;;;;;;51.80;27.17;;;;;;;4.65;77.21;95284.50;5129891;27;20039;-70
2022/11/15 08:46:31;;;;;;;50.33;26.88;;;;;;;4.51;76.93;95250.09;5130300;28;20088;-70
2022/11/15 08:48:56;;;;;;;55.17;26.45;;;;;;;4.32;76.81;95211.63;5112958;28;20028;-69
2022/11/15 08:51:22;;;;;;;49.92;25.02;;;;;;;4.35;77.05;95211.47;5112976;28;20036;-70
2022/11/15 08:53:47;;;;;;;54.72;26.77;;;;;;;4.18;76.85;95179.75;5112859;28;20031;-70
2022/11/15 08:56:14;;;;;;;51.83;26.45;;;;;;;4.77;76.63;95265.00;5131550;27;20031;-70
2022/11/15 08:58:39;;;;;;;55.85;30.05;;;;;;;4.47;75.72;95201.34;5132652;27;20059;-70
2022/11/15 09:01:05;;;;;;;54.67;26.55;;;;;;;4.90;76.14;95263.44;5134062;27;20469;-69
2022/11/15 09:03:30;;;;;;;43.72;22.30;;;;;;;4.55;76.56;95195.81;5116730;27;20042;-70
2022/11/15 09:05:56;;;;;;;44.55;22.92;;;;;;;4.81;76.75;95234.78;5133960;27;20058;-70
2022/11/15 09:08:22;;;;;;;43.70;23.75;;;;;;;4.49;76.68;95175.56;5116737;27;20020;-70
2022/11/15 09:10:48;;;;;;;42.67;23.05;;;;;;;4.37;76.90;95150.47;5133458;27;20141;-70
2022/11/15 09:13:13;;;;;;;43.35;23.25;;;;;;;4.98;76.62;95232.13;5099478;27;20030;-70
2022/11/15 09:15:39;;;;;;;45.30;23.00;;;;;;;5.13;75.92;95243.34;5116677;27;20047;-70
2022/11/15 09:18:04;;;;;;;46.70;23.50;;;;;;;4.55;76.01;95135.81;5133650;27;20027;-70
2022/11/15 09:20:30;;;;;;;41.42;22.30;;;;;;;4.88;76.00;95192.34;5116332;27;20066;-70
2022/11/15 09:23:01;;;;;;;42.75;22.35;;;;;;;5.19;75.60;95219.81;5099357;27;20031;-70
2022/11/15 09:25:27;;;;;;;50.78;25.98;;;;;;;5.11;75.10;95201.38;5133534;27;20042;-70
2022/11/15 09:27:52;;;;;;;50.35;25.95;;;;;;;5.22;75.52;95219.66;5099261;27;20031;-70
2022/11/15 09:30:18;;;;;;;47.00;25.05;;;;;;;5.31;75.38;95219.13;5116216;27;20077;-70
2022/11/15 09:32:43;;;;;;;50.22;27.40;;;;;;;4.66;75.78;95123.19;5134517;27;20034;-70
2022/11/15 09:35:09;;;;;;;47.45;25.17;;;;;;;5.31;75.43;95213.16;5115949;27;20034;-70
2022/11/15 09:37:34;;;;;;;50.55;26.55;;;;;;;4.66;75.56;95129.16;5116189;27;20488;-69
2022/11/15 09:40:00;;;;;;;47.22;25.48;;;;;;;4.67;76.15;95128.25;5134445;27;20024;-70
2022/11/15 09:42:38;;;;;;;46.15;23.63;;;;;;;5.22;75.04;95180.19;5116223;27;20523;-70
2022/11/15 09:45:20;;;;;;;45.45;24.05;;;;;;;5.26;75.78;95197.13;5133111;27;20046;-70
2022/11/15 09:47:46;;;;;;;48.65;24.05;;;;;;;5.32;75.97;95189.91;5132910;27;20031;-70
2022/11/15 09:50:13;;;;;;;45.20;25.15;;;;;;;4.95;75.65;95125.91;5134224;27;20528;-70
2022/11/15 09:52:40;;;;;;;48.13;23.80;;;;;;;5.33;74.87;95150.31;5132909;27;20048;-70
2022/11/15 09:55:07;;;;;;;42.92;21.42;;;;;;;5.44;75.31;95167.75;5097757;27;20453;-70
2022/11/15 09:57:38;;;;;;;44.92;24.02;;;;;;;5.59;75.28;95181.50;5115363;27;20023;-70
2022/11/15 10:00:07;;;;;;;46.78;23.98;;;;;;;5.60;75.05;95178.84;5132562;27;20110;-71
2022/11/15 10:02:38;;;;;;;46.80;24.88;;;;;;;5.63;74.78;95172.69;5133894;27;20019;-70
2022/11/15 10:05:03;;;;;;;78.55;37.28;;;;;;;5.64;74.60;95169.19;5133647;27;20031;-70
2022/11/15 10:07:44;;;;;;;55.55;29.23;;;;;;;5.68;74.85;95169.81;5132647;27;20453;-69
2022/11/15 10:10:38;;;;;;;46.47;24.05;;;;;;;5.62;74.73;95158.13;5133503;27;20027;-71
2022/11/15 10:13:04;;;;;;;42.40;23.92;;;;;;;5.37;75.70;95172.41;5095486;27;20039;-70
2022/11/15 10:15:29;;;;;;;47.67;24.92;;;;;;;5.26;75.86;95137.88;5132413;27;20054;-70
2022/11/15 10:17:57;;;;;;;51.15;26.10;;;;;;;5.54;74.76;95162.88;5132498;27;20066;-70
2022/11/15 10:20:26;;;;;;;47.72;25.73;;;;;;;5.57;74.74;95152.41;5133756;27;20050;-70
2022/11/15 10:22:53;;;;;;;54.28;27.23;;;;;;;5.51;74.56;95129.56;5115432;27;20027;-70
2022/11/15 10:25:24;;;;;;;52.17;28.40;;;;;;;5.73;74.50;95154.94;5132409;27;20049;-70
2022/11/15 10:27:55;;;;;;;53.67;27.80;;;;;;;5.51;75.12;95145.84;5115333;27;20079;-70
2022/11/15 10:30:21;;;;;;;54.20;27.13;;;;;;;4.96;76.05;95086.34;5115502;27;20273;-70
2022/11/15 10:32:47;;;;;;;55.53;26.75;;;;;;;4.86;76.66;95117.75;5115042;27;20092;-70
2022/11/15 10:35:29;;;;;;;50.50;25.48;;;;;;;5.43;76.28;95142.06;5114957;27;20047;-70
2022/11/15 10:38:10;;;;;;;53.53;25.65;;;;;;;5.40;76.13;95131.94;5132318;27;20019;-70
2022/11/15 10:40:36;;;;;;;54.30;26.30;;;;;;;5.19;76.91;95129.66;5131963;27;20033;-70
2022/11/15 10:43:09;;;;;;;53.28;25.50;;;;;;;4.79;77.69;95072.69;5115362;27;20038;-70
2022/11/15 10:45:35;;;;;;;56.28;26.92;;;;;;;5.00;78.15;95093.00;5133180;27;20031;-70
2022/11/15 10:48:26;;;;;;;51.65;26.10;;;;;;;5.50;77.37;95112.47;5097749;27;20094;-70
2022/11/15 10:50:53;;;;;;;54.47;27.42;;;;;;;5.57;77.17;95101.72;5129965;27;20043;-70
2022/11/15 10:53:21;;;;;;;54.90;27.73;;;;;;;5.60;77.40;95101.53;5097686;27;20022;-70
2022/11/15 10:55:47;;;;;;;56.65;29.35;;;;;;;5.56;77.65;95073.44;5133097;27;20053;-70
2022/11/15 10:58:30;;;;;;;59.35;29.65;;;;;;;5.94;76.40;95093.56;5114489;27;20055;-70
2022/11/15 11:00:55;;;;;;;53.30;28.38;;;;;;;5.80;75.82;95060.84;5116049;27;20045;-70
2022/11/15 11:03:27;;;;;;;58.35;27.70;;;;;;;6.08;75.15;95085.81;5131571;27;20416;-71
2022/11/15 11:06:02;;;;;;;;;;;;;;;6.10;75.77;95078.84;5131949;27;20133;-71
2022/11/15 11:08:28;;;;;;;50.25;26.85;;;;;;;5.33;76.61;95000.91;5131448;27;19911;-70
2022/11/15 11:10:58;;;;;;;54.20;27.02;;;;;;;6.12;75.69;95071.81;5114014;27;20108;-70
2022/11/15 11:13:25;;;;;;;55.53;27.65;;;;;;;6.08;74.97;95039.41;5114393;27;20019;-70
2022/11/15 11:16:15;;;;;;;48.88;25.80;;;;;;;6.46;74.27;95055.09;5114392;27;20055;-70
2022/11/15 11:19:05;;;;;;;51.45;26.70;;;;;;;6.43;75.33;95049.28;5132506;27;20532;-70
2022/11/15 11:21:52;;;;;;;47.70;25.83;;;;;;;6.55;74.35;95045.13;5131036;27;20088;-69
2022/11/15 11:24:53;;;;;;;47.60;25.38;;;;;;;6.71;73.28;95044.03;5097515;27;20031;-69
2022/11/15 11:27:34;;;;;;;46.10;24.33;;;;;;;6.56;74.15;95045.00;5098824;27;20043;-69
2022/11/15 11:30:14;;;;;;;49.58;26.73;;;;;;;6.66;74.31;95038.34;5131021;27;20489;-69
2022/11/15 11:32:49;;;;;;;48.53;27.10;;;;;;;6.61;74.24;95036.97;5131020;27;20035;-69
2022/11/15 11:35:22;;;;;;;49.50;27.35;;;;;;;6.20;73.96;94942.34;5130986;27;20038;-69
2022/11/15 11:38:17;;;;;;;52.75;27.40;;;;;;;6.87;72.92;95023.19;5114435;27;20090;-69